Time;durP1;ratioP1;P1;durP2;ratioP2;P2;SDS_P1;SDS_P2;PMS_P1;PMS_P2;Temp;Humidity;BMP_temperature;BMP_pressure;BME280_temperature;BME280_humidity;BME280_pressure;Samples;Min_cycle;Max_cycle;Signal;HPM_P1;HPM_P2
2022/04/17 00:02:49;;;;;;;2.30;1.20;;;14.80;99.90;;;;;;1937981;73;21158;-81
2022/04/17 00:05:41;;;;;;;1.80;0.90;;;14.70;99.90;;;;;;1917748;75;21083;-81
2022/04/17 00:08:32;;;;;;;3.02;1.10;;;14.70;99.90;;;;;;1917426;75;21059;-80
2022/04/17 00:11:24;;;;;;;2.05;1.05;;;14.70;99.90;;;;;;1901078;75;21109;-80
2022/04/17 00:14:17;;;;;;;1.50;1.05;;;14.70;99.90;;;;;;1921155;73;21156;-81
2022/04/17 00:17:09;;;;;;;1.98;0.90;;;14.60;99.90;;;;;;1941750;73;21043;-80
2022/04/17 00:20:01;;;;;;;1.30;0.90;;;14.50;99.90;;;;;;1930637;73;21605;-79
2022/04/17 00:22:53;;;;;;;3.40;1.05;;;14.50;99.90;;;;;;1923716;73;21156;-79
2022/04/17 00:25:44;;;;;;;2.98;1.60;;;14.50;99.90;;;;;;1928648;73;21172;-79
2022/04/17 00:31:15;;;;;;;2.05;1.32;;;14.40;99.90;;;;;;1951991;72;22152;-79
2022/04/17 00:34:26;;;;;;;3.55;1.30;;;14.40;99.90;;;;;;1931791;74;21094;-81
2022/04/17 00:40:19;;;;;;;4.37;1.50;;;14.30;99.90;;;;;;1948084;72;22775;-79
2022/04/17 00:43:32;;;;;;;1.42;1.22;;;14.20;99.90;;;;;;1932322;73;21043;-79
2022/04/17 00:46:42;;;;;;;3.25;1.40;;;14.10;99.90;;;;;;1928805;73;21089;-79
2022/04/17 00:52:15;;;;;;;2.72;1.30;;;14.00;99.90;;;;;;1940539;72;22605;-80
2022/04/17 00:58:05;;;;;;;1.98;1.60;;;14.00;99.90;;;;;;1952534;72;22684;-79
2022/04/17 01:01:15;;;;;;;3.22;1.65;;;13.90;99.90;;;;;;1906826;75;21047;-80
2022/04/17 01:04:26;;;;;;;2.17;1.30;;;13.90;99.90;;;;;;1911380;75;21113;-79
2022/04/17 01:07:18;;;;;;;1.75;1.45;;;13.90;99.90;;;;;;1908251;75;21102;-80
2022/04/17 01:10:28;;;;;;;1.75;1.17;;;13.90;99.90;;;;;;1915011;75;21055;-79
2022/04/17 01:13:20;;;;;;;2.25;1.20;;;13.90;99.90;;;;;;1892745;75;21098;-79
2022/04/17 01:16:16;;;;;;;1.45;1.15;;;13.80;99.90;;;;;;1897144;75;21055;-79
2022/04/17 01:19:11;;;;;;;1.32;1.10;;;13.80;99.90;;;;;;1906961;75;21080;-79
2022/04/17 01:22:03;;;;;;;1.85;1.20;;;13.80;99.90;;;;;;1904837;75;21176;-80
2022/04/17 01:31:03;;;;;;;2.55;1.57;;;13.60;99.90;;;;;;1950170;72;22122;-79
2022/04/17 01:34:18;;;;;;;2.37;1.20;;;13.60;99.90;;;;;;1915729;73;21055;-81
2022/04/17 01:37:28;;;;;;;1.70;1.40;;;13.50;99.90;;;;;;1914541;74;21063;-79
2022/04/17 01:40:19;;;;;;;1.52;1.30;;;13.50;99.90;;;;;;1912774;74;21121;-79
2022/04/17 01:43:30;;;;;;;1.57;1.40;;;13.50;99.90;;;;;;1914089;74;21601;-79
2022/04/17 01:46:22;;;;;;;1.50;1.40;;;13.50;99.90;;;;;;1905412;75;21087;-81
2022/04/17 01:51:57;;;;;;;1.40;1.30;;;13.30;99.90;;;;;;1934924;72;22129;-79
2022/04/17 01:55:09;;;;;;;2.00;1.50;;;13.20;99.90;;;;;;1906935;75;21145;-80
2022/04/17 01:58:19;;;;;;;1.57;1.47;;;13.20;99.90;;;;;;1905516;75;21182;-80
2022/04/17 02:01:11;;;;;;;2.85;1.42;;;13.10;99.90;;;;;;1886559;75;21073;-80
2022/04/17 02:07:01;;;;;;;3.22;1.35;;;13.00;99.90;;;;;;1958710;72;22176;-79
2022/04/17 02:10:17;;;;;;;2.10;1.47;;;13.00;99.90;;;;;;1898050;75;21491;-79
2022/04/17 02:13:24;;;;;;;1.75;1.40;;;13.00;99.90;;;;;;1885210;75;21164;-78
2022/04/17 02:18:54;;;;;;;3.77;1.65;;;13.00;99.90;;;;;;1954362;72;22142;-79
2022/04/17 02:22:05;;;;;;;1.65;1.55;;;13.00;99.90;;;;;;1905780;75;21114;-81
2022/04/17 02:25:15;;;;;;;1.65;1.40;;;13.00;99.90;;;;;;1905075;75;21648;-79
2022/04/17 02:30:46;;;;;;;3.08;1.50;;;13.00;99.90;;;;;;1938439;72;22272;-79
2022/04/17 02:33:57;;;;;;;2.60;2.00;;;13.00;99.90;;;;;;1904681;75;21095;-81
2022/04/17 02:37:07;;;;;;;2.72;1.62;;;12.90;99.90;;;;;;1906644;75;21109;-80
2022/04/17 02:39:59;;;;;;;3.22;1.70;;;12.80;99.90;;;;;;1908653;75;21059;-79
2022/04/17 02:43:09;;;;;;;2.25;1.57;;;12.80;99.90;;;;;;1884865;76;21115;-79
2022/04/17 02:46:01;;;;;;;3.15;1.77;;;12.80;99.90;;;;;;1900436;75;21091;-79
2022/04/17 02:48:53;;;;;;;1.92;1.57;;;12.70;99.90;;;;;;1895337;75;21110;-79
2022/04/17 02:51:45;;;;;;;1.77;1.67;;;12.70;99.90;;;;;;1890362;75;21187;-79
2022/04/17 02:54:38;;;;;;;2.05;1.85;;;12.70;99.90;;;;;;1906692;75;21146;-79
2022/04/17 03:00:12;;;;;;;2.20;1.60;;;12.70;99.90;;;;;;1942762;72;22244;-79
2022/04/17 03:06:50;;;;;;;1.70;1.60;;;12.60;99.90;;;;;;1899249;74;21089;-80
2022/04/17 03:09:43;;;;;;;2.10;1.37;;;12.60;99.90;;;;;;1918331;74;21489;-80
2022/04/17 03:12:53;;;;;;;2.62;1.82;;;12.60;99.90;;;;;;1917774;75;21053;-79
2022/04/17 03:15:44;;;;;;;3.52;1.72;;;12.60;99.90;;;;;;1908314;75;21083;-80
2022/04/17 03:18:36;;;;;;;3.77;1.80;;;12.50;99.90;;;;;;1921220;74;21054;-80
2022/04/17 03:21:28;;;;;;;2.72;1.87;;;12.50;99.90;;;;;;1918010;75;21063;-79
2022/04/17 03:24:20;;;;;;;2.30;1.90;;;12.50;99.90;;;;;;1918550;74;21045;-79
2022/04/17 03:27:12;;;;;;;2.52;1.55;;;12.50;99.90;;;;;;1918199;74;21122;-79
2022/04/17 03:32:42;;;;;;;1.85;1.70;;;12.40;99.90;;;;;;1956268;72;22106;-79
2022/04/17 03:35:52;;;;;;;3.60;1.70;;;12.30;99.90;;;;;;1895755;74;21051;-80
2022/04/17 03:39:02;;;;;;;2.72;1.67;;;12.30;99.90;;;;;;1904342;75;21055;-80
2022/04/17 03:41:54;;;;;;;3.37;1.87;;;12.30;99.90;;;;;;1895395;75;21172;-79
2022/04/17 03:45:05;;;;;;;2.25;1.60;;;12.30;99.90;;;;;;1906620;75;21152;-81
2022/04/17 03:50:38;;;;;;;3.30;1.80;;;12.20;99.90;;;;;;1956085;72;22589;-79
2022/04/17 03:53:48;;;;;;;2.17;1.70;;;12.10;99.90;;;;;;1891420;75;21054;-79
2022/04/17 03:56:58;;;;;;;2.10;1.90;;;12.10;99.90;;;;;;1906988;75;21091;-80
2022/04/17 03:59:49;;;;;;;1.90;1.52;;;12.00;99.90;;;;;;1906804;75;21145;-79
2022/04/17 04:02:59;;;;;;;2.55;1.60;;;11.90;99.90;;;;;;1906901;75;21084;-79
2022/04/17 04:05:52;;;;;;;3.25;1.72;;;11.90;99.90;;;;;;1919188;74;21051;-80
2022/04/17 04:11:22;;;;;;;3.80;2.00;;;11.90;99.90;;;;;;1950472;72;22221;-79
2022/04/17 04:14:33;;;;;;;1.98;1.72;;;11.90;99.90;;;;;;1909880;75;21079;-80
2022/04/17 04:20:24;;;;;;;1.52;1.40;;;11.80;99.90;;;;;;1941506;72;22133;-79
2022/04/17 04:26:13;;;;;;;2.00;1.57;;;11.80;99.90;;;;;;1946859;72;22821;-79
2022/04/17 04:29:23;;;;;;;2.20;1.72;;;11.80;99.90;;;;;;1909700;74;21536;-80
2022/04/17 04:35:13;;;;;;;4.65;2.10;;;11.70;99.90;;;;;;1944956;72;22868;-79
2022/04/17 04:41:04;;;;;;;2.42;1.70;;;11.60;99.90;;;;;;1958426;72;22127;-79
2022/04/17 04:44:14;;;;;;;2.77;1.60;;;11.60;99.90;;;;;;1897992;75;21102;-80
2022/04/17 04:47:25;;;;;;;3.72;1.98;;;11.50;99.90;;;;;;1896878;75;21098;-79
2022/04/17 04:50:16;;;;;;;1.82;1.65;;;11.50;99.90;;;;;;1906809;75;21117;-79
2022/04/17 04:53:27;;;;;;;2.47;1.70;;;11.50;99.90;;;;;;1897569;75;21098;-79
2022/04/17 04:56:19;;;;;;;1.65;1.45;;;11.50;99.90;;;;;;1907818;75;21090;-79
2022/04/17 04:59:11;;;;;;;2.37;1.90;;;11.40;99.90;;;;;;1900235;75;21533;-79
2022/04/17 05:02:02;;;;;;;1.77;1.62;;;11.40;99.90;;;;;;1884888;76;21121;-79
2022/04/17 05:04:54;;;;;;;2.65;1.72;;;11.40;99.90;;;;;;1914229;75;21051;-79
2022/04/17 05:07:46;;;;;;;1.72;1.57;;;11.40;99.90;;;;;;1893228;75;21176;-81
2022/04/17 05:10:38;;;;;;;1.98;1.60;;;11.40;99.90;;;;;;1904237;75;21149;-81
2022/04/17 05:13:30;;;;;;;1.75;1.65;;;11.50;99.90;;;;;;1898217;75;21443;-80
2022/04/17 05:16:22;;;;;;;2.75;1.67;;;11.50;99.90;;;;;;1915997;75;21529;-80
2022/04/17 05:19:20;;;;;;;2.20;1.90;;;11.50;99.90;;;;;;1914925;75;21040;-80
2022/04/17 05:22:15;;;;;;;;;;;11.50;99.90;;;;;;1920321;75;21114;-79
2022/04/17 05:25:04;;;;;;;3.58;2.10;;;11.40;99.90;;;;;;1901834;75;20229;-79
2022/04/17 05:30:35;;;;;;;1.95;1.70;;;11.50;99.90;;;;;;1938881;72;22135;-79
2022/04/17 05:33:45;;;;;;;2.00;1.57;;;11.50;99.90;;;;;;1906156;75;21057;-79
2022/04/17 05:36:56;;;;;;;2.10;1.77;;;11.50;99.90;;;;;;1917395;75;21503;-80
2022/04/17 05:39:48;;;;;;;3.85;1.95;;;11.40;99.90;;;;;;1917672;75;21047;-79
2022/04/17 05:45:38;;;;;;;1.92;1.72;;;11.40;99.90;;;;;;1927928;72;22249;-79
2022/04/17 05:51:29;;;;;;;3.37;2.02;;;11.50;99.90;;;;;;1936234;72;22272;-79
2022/04/17 05:54:43;;;;;;;2.55;1.67;;;11.60;99.90;;;;;;1887072;75;21055;-79
2022/04/17 06:00:30;;;;;;;2.02;1.82;;;11.60;99.90;;;;;;1946497;72;22240;-79
2022/04/17 06:03:40;;;;;;;3.02;2.30;;;11.60;99.90;;;;;;1917811;75;21097;-74
2022/04/17 06:06:49;;;;;;;2.58;1.98;;;11.60;99.90;;;;;;1917739;75;21108;-73
2022/04/17 06:09:41;;;;;;;2.35;2.15;;;11.50;99.90;;;;;;1940507;73;21344;-73
2022/04/17 06:12:51;;;;;;;2.92;2.17;;;11.50;99.90;;;;;;1920972;74;21175;-73
2022/04/17 06:15:43;;;;;;;6.03;2.42;;;11.50;99.90;;;;;;1936596;73;21055;-72
2022/04/17 06:21:13;;;;;;;2.05;1.85;;;11.60;99.90;;;;;;1947839;72;22231;-69
2022/04/17 06:24:23;;;;;;;3.12;2.15;;;11.60;99.90;;;;;;1930973;73;21026;-70
2022/04/17 06:30:21;;;;;;;4.45;2.25;;;11.70;99.90;;;;;;1931274;72;22290;-69
2022/04/17 06:36:13;;;;;;;2.83;2.27;;;12.10;99.90;;;;;;1960631;72;22279;-69
2022/04/17 06:39:23;;;;;;;2.87;2.50;;;11.90;99.90;;;;;;1931065;73;21084;-71
2022/04/17 06:42:32;;;;;;;2.95;2.52;;;11.80;99.90;;;;;;1918485;73;21058;-70
2022/04/17 06:45:25;;;;;;;2.80;2.40;;;11.90;99.90;;;;;;1931838;73;21160;-69
2022/04/17 06:48:35;;;;;;;2.80;2.55;;;12.00;99.90;;;;;;1931546;73;21051;-70
2022/04/17 06:51:26;;;;;;;2.92;2.50;;;12.00;99.90;;;;;;1939790;73;21120;-69
2022/04/17 06:54:17;;;;;;;3.55;2.47;;;12.00;99.90;;;;;;1918284;72;21557;-69
2022/04/17 06:57:08;;;;;;;3.22;2.47;;;12.20;99.90;;;;;;1933307;73;21108;-70
2022/04/17 07:00:02;;;;;;;5.22;3.08;;;12.20;99.90;;;;;;1938361;73;21109;-70
2022/04/17 07:02:53;;;;;;;3.50;2.80;;;12.40;99.90;;;;;;1929903;73;21121;-69
2022/04/17 07:05:46;;;;;;;3.92;2.37;;;12.70;99.90;;;;;;1899522;75;21138;-69
2022/04/17 07:11:19;;;;;;;3.05;2.27;;;12.60;99.90;;;;;;1921443;72;22121;-68
2022/04/17 07:14:27;;;;;;;2.77;2.37;;;12.80;99.90;;;;;;1897613;75;21155;-70
2022/04/17 07:20:16;;;;;;;3.20;2.50;;;12.80;99.90;;;;;;1924768;72;22240;-77
2022/04/17 07:23:26;;;;;;;2.95;2.40;;;12.90;99.90;;;;;;1900478;74;21063;-79
2022/04/17 07:26:36;;;;;;;4.35;2.60;;;12.80;99.90;;;;;;1893749;75;21129;-79
2022/04/17 07:29:28;;;;;;;2.83;2.45;;;12.80;99.90;;;;;;1895928;75;21086;-78
2022/04/17 07:35:19;;;;;;;3.08;2.77;;;12.80;99.90;;;;;;1950911;72;22138;-78
2022/04/17 07:38:28;;;;;;;3.92;2.90;;;12.80;99.90;;;;;;1908988;75;21094;-80
2022/04/17 07:41:39;;;;;;;3.12;2.77;;;12.80;99.90;;;;;;1906283;75;21086;-79
2022/04/17 07:44:32;;;;;;;8.23;3.00;;;12.90;99.90;;;;;;1882387;76;21084;-78
2022/04/17 07:47:44;;;;;;;3.55;3.20;;;12.90;99.90;;;;;;1900375;75;21087;-79
2022/04/17 07:50:35;;;;;;;2.80;2.50;;;12.90;99.90;;;;;;1898005;75;21047;-78
2022/04/17 07:53:27;;;;;;;4.10;2.62;;;13.00;99.90;;;;;;1899490;75;21157;-78
2022/04/17 07:56:19;;;;;;;9.98;4.03;;;13.10;99.90;;;;;;1895418;75;21133;-79
2022/04/17 08:01:50;;;;;;;3.67;3.02;;;13.10;99.90;;;;;;1955567;72;22172;-78
2022/04/17 08:05:01;;;;;;;3.27;2.98;;;13.20;99.90;;;;;;1904193;75;21124;-77
2022/04/17 08:10:50;;;;;;;3.42;2.80;;;13.20;99.90;;;;;;1953753;72;22158;-79
2022/04/17 08:16:39;;;;;;;3.55;3.25;;;13.40;99.90;;;;;;1944397;72;22172;-78
2022/04/17 08:22:28;;;;;;;3.08;2.83;;;13.60;99.90;;;;;;1972766;72;22190;-78
2022/04/17 08:25:38;;;;;;;4.90;3.30;;;13.70;99.90;;;;;;1917609;75;21149;-78
2022/04/17 08:28:49;;;;;;;3.40;2.87;;;13.80;99.90;;;;;;1933330;73;21095;-78
2022/04/17 08:31:41;;;;;;;3.00;2.72;;;13.80;99.90;;;;;;1932874;73;21584;-78
2022/04/17 08:34:52;;;;;;;3.83;2.90;;;13.90;99.90;;;;;;1934935;73;21513;-78
2022/04/17 08:37:44;;;;;;;3.85;2.85;;;13.90;99.90;;;;;;1917553;75;21100;-77
2022/04/17 08:40:38;;;;;;;3.40;3.10;;;13.90;99.90;;;;;;1922316;73;21141;-78
2022/04/17 08:43:31;;;;;;;3.35;2.98;;;14.00;99.90;;;;;;1930120;73;21118;-78
2022/04/17 08:46:23;;;;;;;3.80;3.00;;;14.00;99.90;;;;;;1937185;73;21139;-78
2022/04/17 08:51:56;;;;;;;4.92;3.70;;;14.20;99.90;;;;;;1938285;72;22134;-78
2022/04/17 08:55:08;;;;;;;3.35;3.05;;;14.30;99.90;;;;;;1911917;75;21095;-78
2022/04/17 08:58:22;;;;;;;3.85;3.17;;;14.30;99.90;;;;;;1917404;75;21182;-79
2022/04/17 09:01:19;;;;;;;3.83;3.15;;;14.30;99.90;;;;;;1895402;75;21168;-79
2022/04/17 09:04:30;;;;;;;4.72;2.87;;;14.40;99.90;;;;;;1913081;75;21047;-78
2022/04/17 09:07:22;;;;;;;4.37;3.17;;;14.40;99.90;;;;;;1885562;75;21153;-79
2022/04/17 09:10:25;;;;;;;3.50;3.20;;;14.50;99.90;;;;;;1913700;75;21055;-79
2022/04/17 09:16:02;;;;;;;3.35;3.05;;;14.50;99.90;;;;;;1941291;72;22087;-79
2022/04/17 09:19:17;;;;;;;5.70;3.27;;;14.60;99.90;;;;;;1900125;74;21126;-81
2022/04/17 09:22:29;;;;;;;3.37;3.08;;;14.70;99.90;;;;;;1873026;75;21538;-79
2022/04/17 09:30:45;;;;;;;3.58;3.02;;;14.80;99.90;;;;;;1939181;72;22113;-79
2022/04/17 09:33:57;;;;;;;4.55;3.20;;;14.80;99.90;;;;;;1898429;75;21082;-79
2022/04/17 09:39:49;;;;;;;4.37;3.40;;;14.80;99.90;;;;;;1934808;72;22336;-79
2022/04/17 09:46:00;;;;;;;4.08;3.55;;;14.90;99.90;;;;;;1948919;72;22562;-80
2022/04/17 09:51:52;;;;;;;3.90;3.60;;;15.00;99.90;;;;;;1968734;72;22138;-79
2022/04/17 09:55:07;;;;;;;4.60;3.40;;;15.00;99.90;;;;;;1905016;75;21727;-79
2022/04/17 09:58:21;;;;;;;3.67;3.20;;;15.00;99.90;;;;;;1905126;75;21169;-79
2022/04/17 10:01:18;;;;;;;3.33;3.02;;;15.00;99.90;;;;;;1905023;75;21121;-79
2022/04/17 10:04:28;;;;;;;3.20;2.80;;;15.10;99.90;;;;;;1905447;74;21161;-80
2022/04/17 10:07:23;;;;;;;4.12;3.37;;;15.20;99.90;;;;;;1901047;75;21245;-80
2022/04/17 10:10:17;;;;;;;3.17;2.87;;;15.30;99.90;;;;;;1919684;74;21583;-80
2022/04/17 10:15:49;;;;;;;4.85;3.22;;;15.30;99.90;;;;;;1973685;72;22557;-79
2022/04/17 10:19:00;;;;;;;3.58;2.90;;;15.20;99.90;;;;;;1904539;73;21167;-79
2022/04/17 10:22:14;;;;;;;3.87;3.15;;;15.30;99.90;;;;;;1905428;75;21488;-79
2022/04/17 10:25:08;;;;;;;3.08;2.52;;;15.30;99.90;;;;;;1913975;74;21107;-79
2022/04/17 10:28:20;;;;;;;4.70;2.98;;;15.40;99.90;;;;;;1922174;74;21082;-78
2022/04/17 10:31:17;;;;;;;3.22;2.92;;;15.60;99.90;;;;;;1912232;74;21110;-79
2022/04/17 10:34:36;;;;;;;3.08;2.50;;;15.60;99.90;;;;;;1929542;73;21171;-78
2022/04/17 10:37:41;;;;;;;3.42;2.60;;;15.60;99.90;;;;;;1904992;75;21087;-79
2022/04/17 10:40:34;;;;;;;3.52;2.37;;;15.60;99.90;;;;;;1927699;74;21069;-79
2022/04/17 10:43:25;;;;;;;3.87;2.98;;;15.50;99.90;;;;;;1909845;74;21143;-79
2022/04/17 10:46:18;;;;;;;2.77;2.58;;;15.70;99.90;;;;;;1915862;74;21585;-79
2022/04/17 10:49:11;;;;;;;3.52;2.30;;;15.90;99.90;;;;;;1922131;73;21177;-79
2022/04/17 10:52:03;;;;;;;4.10;2.60;;;15.90;99.90;;;;;;1913804;74;21129;-78
2022/04/17 10:57:45;;;;;;;2.35;2.15;;;16.00;99.90;;;;;;1958493;72;22209;-78
2022/04/17 11:00:55;;;;;;;2.50;2.08;;;16.10;99.90;;;;;;1918523;73;21093;-80
2022/04/17 11:06:46;;;;;;;2.27;2.08;;;16.30;99.90;;;;;;1964254;72;22589;-79
2022/04/17 11:15:43;;;;;;;2.40;1.90;;;16.40;99.90;;;;;;1953004;72;22243;-79
2022/04/17 11:21:46;;;;;;;3.10;2.50;;;16.70;99.90;;;;;;1957692;72;22139;-79
2022/04/17 11:25:11;;;;;;;2.87;2.47;;;16.70;99.90;;;;;;1916368;75;21051;-80
2022/04/17 11:28:32;;;;;;;3.12;1.90;;;16.90;99.90;;;;;;1917321;75;21047;-79
2022/04/17 11:31:33;;;;;;;3.10;2.17;;;17.00;99.90;;;;;;1906126;75;21073;-79
2022/04/17 11:34:25;;;;;;;5.22;2.87;;;17.00;99.90;;;;;;1920315;74;21101;-79
2022/04/17 11:37:19;;;;;;;2.30;2.10;;;17.10;99.90;;;;;;1921251;74;21035;-79
2022/04/17 11:40:13;;;;;;;4.10;2.50;;;17.20;99.90;;;;;;1913813;74;21581;-79
2022/04/17 11:43:14;;;;;;;2.37;2.10;;;17.30;99.90;;;;;;1928289;74;21132;-79
2022/04/17 11:46:07;;;;;;;2.20;2.00;;;17.40;99.90;;;;;;1927921;74;21191;-79
2022/04/17 11:49:01;;;;;;;2.55;2.08;;;17.50;99.90;;;;;;1924892;74;21109;-79
2022/04/17 11:54:32;;;;;;;1.95;1.72;;;17.60;99.90;;;;;;1949562;72;22192;-79
2022/04/17 12:00:22;;;;;;;3.08;2.15;;;17.50;99.90;;;;;;1958067;72;22159;-79
2022/04/17 12:03:41;;;;;;;2.52;2.27;;;17.60;99.90;;;;;;1896910;75;21151;-80
2022/04/17 12:06:57;;;;;;;2.35;2.15;;;17.70;99.90;;;;;;1897915;75;21192;-80
2022/04/17 12:09:48;;;;;;;2.13;1.93;;;17.70;99.90;;;;;;1895611;75;21119;-79
2022/04/17 12:15:42;;;;;;;3.17;1.87;;;17.80;99.90;;;;;;1952504;72;22166;-79
2022/04/17 12:18:56;;;;;;;3.70;2.40;;;17.70;99.90;;;;;;1950960;73;21098;-80
2022/04/17 12:22:14;;;;;;;2.40;2.20;;;17.90;99.90;;;;;;1939028;73;21104;-79
2022/04/17 12:27:57;;;;;;;3.05;2.22;;;18.00;99.90;;;;;;1953666;72;22138;-79
2022/04/17 12:31:08;;;;;;;3.05;2.10;;;18.00;99.90;;;;;;1896359;75;21169;-79
2022/04/17 12:36:57;;;;;;;5.40;2.05;;;18.00;99.90;;;;;;1952042;72;22160;-79
2022/04/17 12:40:16;;;;;;;3.25;1.98;;;18.20;99.90;;;;;;1906325;75;21263;-81
2022/04/17 12:43:30;;;;;;;2.10;1.90;;;18.10;99.90;;;;;;1909028;75;21083;-81
2022/04/17 12:49:11;;;;;;;2.17;1.72;;;18.30;99.90;;;;;;1960651;72;22173;-79
2022/04/17 12:52:24;;;;;;;3.77;1.60;;;18.40;99.90;;;;;;1931030;73;21112;-79
2022/04/17 12:55:36;;;;;;;3.30;1.87;;;18.50;99.90;;;;;;1917252;75;21146;-78
2022/04/17 12:58:28;;;;;;;3.45;1.80;;;18.60;99.90;;;;;;1925774;73;21173;-78
2022/04/17 13:01:40;;;;;;;5.58;1.70;;;18.60;99.90;;;;;;1920748;73;21127;-78
2022/04/17 13:07:15;;;;;;;2.00;1.80;;;18.70;99.90;;;;;;1976075;72;22510;-79
2022/04/17 13:10:32;;;;;;;3.60;1.67;;;18.70;99.90;;;;;;1934282;73;21131;-80
2022/04/17 13:16:25;;;;;;;2.35;2.00;;;18.80;99.90;;;;;;1965496;72;22145;-79
2022/04/17 13:19:35;;;;;;;4.47;1.92;;;18.80;99.90;;;;;;1939778;73;21054;-79
2022/04/17 13:22:47;;;;;;;4.25;1.82;;;18.70;99.90;;;;;;1917452;75;21438;-79
2022/04/17 13:25:39;;;;;;;3.67;1.77;;;18.70;99.90;;;;;;1917244;75;21131;-79
2022/04/17 13:28:49;;;;;;;2.05;1.55;;;19.00;99.90;;;;;;1917415;75;21130;-79
2022/04/17 13:31:41;;;;;;;5.03;1.62;;;18.90;99.90;;;;;;1917487;75;21113;-78
2022/04/17 13:34:34;;;;;;;3.00;1.50;;;19.00;99.90;;;;;;1917069;75;21058;-79
2022/04/17 13:40:36;;;;;;;2.17;1.55;;;19.10;99.90;;;;;;1917518;75;21054;-78
2022/04/17 13:43:28;;;;;;;1.50;1.40;;;19.00;99.90;;;;;;1917292;75;21084;-79
2022/04/17 13:46:20;;;;;;;1.60;1.50;;;19.10;99.90;;;;;;1917412;75;21031;-78
2022/04/17 13:49:12;;;;;;;2.10;1.50;;;19.00;99.90;;;;;;1927449;74;21143;-79
2022/04/17 13:52:05;;;;;;;2.00;1.50;;;19.20;99.90;;;;;;1919455;73;21172;-80
2022/04/17 13:54:58;;;;;;;2.12;1.50;;;19.20;99.90;;;;;;1922644;73;21191;-80
2022/04/17 13:57:51;;;;;;;2.85;1.70;;;19.30;99.90;;;;;;1927657;73;21146;-80
2022/04/17 14:00:43;;;;;;;1.30;1.20;;;19.00;99.90;;;;;;1917136;75;21133;-79
2022/04/17 14:03:35;;;;;;;2.47;1.57;;;19.30;99.90;;;;;;1917498;75;21125;-79
2022/04/17 14:06:27;;;;;;;2.10;1.47;;;19.70;99.90;;;;;;1917201;75;21050;-79
2022/04/17 14:09:18;;;;;;;3.47;1.72;;;20.30;99.90;;;;;;1917410;75;21116;-79
2022/04/17 14:12:12;;;;;;;2.05;1.37;;;20.40;99.90;;;;;;1917405;75;21237;-79
2022/04/17 14:15:04;;;;;;;2.12;1.47;;;20.70;99.90;;;;;;1918641;74;21118;-79
2022/04/17 14:17:56;;;;;;;1.55;1.37;;;20.90;99.90;;;;;;1830000;77;21079;-79
2022/04/17 14:20:48;;;;;;;1.65;1.37;;;20.90;99.30;;;;;;1912024;73;21088;-79
2022/04/17 14:23:39;;;;;;;3.65;1.27;;;21.00;98.30;;;;;;1922298;74;21133;-79
2022/04/17 14:29:10;;;;;;;2.47;1.30;;;21.60;96.70;;;;;;1951440;72;22224;-83
2022/04/17 14:35:01;;;;;;;1.47;1.12;;;22.00;94.90;;;;;;1941458;72;22270;-81
2022/04/17 14:40:52;;;;;;;1.65;1.20;;;22.30;92.80;;;;;;1947193;72;22294;-79
2022/04/17 14:44:02;;;;;;;1.77;1.00;;;22.40;91.90;;;;;;1911354;75;21224;-79
2022/04/17 14:47:12;;;;;;;1.90;1.20;;;22.20;91.10;;;;;;1890663;75;21098;-79
2022/04/17 14:50:04;;;;;;;1.50;1.10;;;22.30;90.60;;;;;;1893226;73;21039;-81
2022/04/17 14:53:16;;;;;;;1.37;1.07;;;22.40;90.10;;;;;;1896433;73;21579;-81
2022/04/17 14:56:11;;;;;;;1.95;1.27;;;22.60;88.50;;;;;;1903053;75;21083;-82
2022/04/17 15:01:52;;;;;;;3.12;1.57;;;22.90;86.00;;;;;;1943275;72;22101;-81
2022/04/17 15:05:04;;;;;;;1.15;1.05;;;23.00;84.60;;;;;;1943437;73;21056;-82
2022/04/17 15:08:17;;;;;;;3.30;1.50;;;22.90;83.10;;;;;;1919239;73;21109;-82
2022/04/17 15:13:55;;;;;;;2.35;1.12;;;23.20;82.30;;;;;;1946491;72;22161;-81
2022/04/17 15:19:39;;;;;;;1.77;1.07;;;23.30;78.20;;;;;;1944395;72;22135;-81
2022/04/17 15:22:50;;;;;;;2.15;1.07;;;23.20;78.00;;;;;;1904397;74;21062;-81
2022/04/17 15:26:00;;;;;;;1.35;1.12;;;23.30;77.00;;;;;;1899977;75;21172;-81
2022/04/17 15:28:53;;;;;;;1.20;1.10;;;23.60;76.20;;;;;;1902357;75;21144;-81
2022/04/17 15:32:04;;;;;;;3.02;1.30;;;24.00;75.00;;;;;;1897411;75;21051;-81
2022/04/17 15:34:56;;;;;;;2.22;1.12;;;24.00;74.00;;;;;;1903093;75;21059;-81
2022/04/17 15:37:48;;;;;;;1.15;1.05;;;23.70;73.90;;;;;;1895526;75;21071;-82
2022/04/17 15:40:42;;;;;;;3.40;1.52;;;23.80;73.70;;;;;;1897225;75;21082;-81
2022/04/17 15:49:59;;;;;;;2.37;1.32;;;24.10;71.60;;;;;;1904901;75;21251;-81
2022/04/17 15:55:30;;;;;;;2.30;1.12;;;24.00;70.00;;;;;;1916278;72;22172;-81
2022/04/17 15:58:44;;;;;;;3.47;1.22;;;23.60;70.50;;;;;;1885363;75;21110;-82
2022/04/17 16:01:56;;;;;;;2.45;1.17;;;23.60;71.10;;;;;;1903743;73;21574;-81
2022/04/17 16:05:00;;;;;;;1.20;0.90;;;23.70;70.00;;;;;;1906439;75;21572;-82
2022/04/17 16:08:12;;;;;;;1.37;1.07;;;23.80;69.50;;;;;;1905460;73;21103;-82
2022/04/17 16:15:17;;;;;;;3.08;1.20;;;23.90;69.90;;;;;;1859722;75;21193;-82
2022/04/17 16:21:38;;;;;;;1.40;1.02;;;24.30;68.20;;;;;;1976003;72;22229;-81
2022/04/17 16:24:49;;;;;;;2.15;1.05;;;24.00;68.20;;;;;;1849002;74;21055;-81
2022/04/17 16:27:59;;;;;;;2.22;1.20;;;24.00;68.50;;;;;;1911742;74;21300;-81
2022/04/17 16:30:52;;;;;;;1.17;1.00;;;24.30;68.00;;;;;;1904756;75;21094;-81
2022/04/17 16:34:05;;;;;;;2.55;1.00;;;24.20;67.40;;;;;;1909606;74;21088;-82
2022/04/17 16:36:57;;;;;;;1.32;1.20;;;24.50;66.90;;;;;;1913941;74;21490;-81
2022/04/17 16:39:48;;;;;;;2.30;1.20;;;24.50;66.20;;;;;;1904688;75;21067;-82
2022/04/17 16:42:40;;;;;;;1.67;1.10;;;24.30;65.10;;;;;;1918656;74;21154;-81
2022/04/17 16:45:32;;;;;;;1.40;0.65;;;24.10;64.20;;;;;;1906396;74;21606;-81
2022/04/17 16:51:04;;;;;;;1.50;0.90;;;23.80;62.30;;;;;;1933870;72;22124;-81
2022/04/17 16:54:15;;;;;;;0.85;0.80;;;23.70;62.60;;;;;;1901468;75;21153;-81
2022/04/17 17:00:06;;;;;;;1.05;0.95;;;23.50;61.30;;;;;;1966965;72;22325;-82
2022/04/17 17:03:17;;;;;;;1.57;0.88;;;23.20;59.80;;;;;;1929896;74;21093;-82
2022/04/17 17:06:28;;;;;;;1.15;0.80;;;22.80;59.90;;;;;;1927598;74;21617;-81
2022/04/17 17:09:19;;;;;;;2.77;0.70;;;22.40;59.70;;;;;;1905250;75;21157;-81
2022/04/17 17:12:30;;;;;;;1.47;0.82;;;22.10;61.10;;;;;;1914000;74;21584;-81
2022/04/17 17:15:26;;;;;;;1.45;1.10;;;21.70;60.90;;;;;;1916029;74;21210;-81
2022/04/17 17:18:17;;;;;;;0.93;0.75;;;21.50;62.00;;;;;;1906023;74;21563;-82
2022/04/17 17:21:13;;;;;;;2.25;1.00;;;21.80;61.60;;;;;;1904971;75;21103;-82
2022/04/17 17:24:07;;;;;;;1.00;0.85;;;21.80;61.40;;;;;;1922394;73;21165;-81
2022/04/17 17:26:59;;;;;;;1.20;0.88;;;21.90;61.30;;;;;;1916020;73;21099;-82
2022/04/17 17:29:50;;;;;;;3.37;1.00;;;21.80;61.60;;;;;;1914524;74;21205;-81
2022/04/17 17:32:42;;;;;;;2.77;1.20;;;21.70;61.90;;;;;;1914980;74;21059;-81
2022/04/17 17:35:34;;;;;;;3.30;1.90;;;21.50;62.30;;;;;;1904737;75;21064;-81
2022/04/17 17:38:27;;;;;;;1.62;0.90;;;21.00;62.90;;;;;;1934464;74;21171;-81
2022/04/17 17:41:20;;;;;;;2.12;1.22;;;20.30;63.60;;;;;;1938674;74;21101;-81
2022/04/17 17:44:12;;;;;;;1.30;1.10;;;19.80;65.20;;;;;;1905203;75;21058;-81
2022/04/17 17:47:06;;;;;;;1.55;1.30;;;19.60;66.00;;;;;;1908201;74;21123;-81
2022/04/17 17:49:58;;;;;;;1.50;1.20;;;19.50;66.60;;;;;;1909868;74;21172;-82
2022/04/17 17:52:53;;;;;;;1.98;1.35;;;19.50;66.90;;;;;;1927779;74;21048;-82
2022/04/17 17:55:45;;;;;;;3.22;1.15;;;19.40;67.30;;;;;;1916390;74;21121;-83
2022/04/17 17:58:37;;;;;;;1.92;1.10;;;19.20;67.80;;;;;;1927383;74;21102;-83
2022/04/17 18:04:07;;;;;;;1.57;1.05;;;19.00;68.80;;;;;;1946118;72;22272;-81
2022/04/17 18:16:32;;;;;;;1.75;1.10;;;18.70;70.90;;;;;;1900560;75;20576;-81
2022/04/17 18:19:24;;;;;;;3.22;1.30;;;18.60;71.30;;;;;;1918030;74;21128;-81
2022/04/17 18:25:27;;;;;;;2.60;1.30;;;18.60;72.60;;;;;;1906485;75;21059;-82
2022/04/17 18:30:58;;;;;;;1.85;1.20;;;18.40;75.50;;;;;;1943133;72;22161;-82
2022/04/17 18:34:09;;;;;;;2.22;1.20;;;18.30;76.40;;;;;;1925342;73;21079;-81
2022/04/17 18:37:19;;;;;;;2.87;1.40;;;18.30;77.40;;;;;;1929535;73;21155;-82
2022/04/17 18:40:12;;;;;;;2.30;1.10;;;18.40;77.50;;;;;;1917547;75;21591;-82
2022/04/17 18:46:10;;;;;;;2.27;1.00;;;18.30;77.90;;;;;;1937912;72;22183;-82
2022/04/17 18:52:02;;;;;;;2.25;1.25;;;18.30;80.00;;;;;;1942576;72;22336;-82
2022/04/17 18:55:13;;;;;;;1.40;1.10;;;18.10;81.30;;;;;;1917433;75;21054;-81
2022/04/17 18:58:23;;;;;;;2.50;1.40;;;17.90;82.00;;;;;;1917580;75;21050;-81
2022/04/17 19:01:15;;;;;;;1.37;1.00;;;17.90;82.60;;;;;;1917452;75;21257;-81
2022/04/17 19:04:25;;;;;;;1.15;1.00;;;17.80;81.00;;;;;;1917605;75;21083;-83
2022/04/17 19:07:17;;;;;;;2.58;1.90;;;17.80;80.90;;;;;;1934077;73;21047;-82
2022/04/17 19:10:11;;;;;;;3.15;1.40;;;17.80;81.70;;;;;;1925519;73;21136;-81
2022/04/17 19:16:12;;;;;;;2.42;1.52;;;17.70;84.40;;;;;;1920695;73;21517;-81
2022/04/17 19:19:04;;;;;;;2.80;1.55;;;17.80;86.50;;;;;;1918258;73;21121;-81